ilmateenistus.ee keskkonnaagentuur.ee
EETN Tallinna lennuväli
FTEO31 EETN 300500 CCA
TAF COR EETN 300916Z 3009/3106 35012KT 9999 BKN010 SCT015CB TEMPO
    3009/3012 3000 RADZ BR BKN003 OVC010 BECMG 3013/3015 29014KT SCT020
    PROB40 TEMPO 3021/3104 23006KT 3000 BR BKN007=

METAR EETN 301020Z 35007KT 9999 SCT005 OVC009 13/12 Q1008 NOSIG=
Tallinna lennuväli
EEKA Kärdla lennuväli
METAR EEKA 300950Z 33019KT 9999 SCT015 BKN026 15/12 Q1010=
Kärdla lennuväli
EEKE Kuressaare lennuväli
FCEO32 EETN 300500 AAA
TAF AMD EEKE 300900Z 3006/3012 CNL=

SPECI EEKE 301030Z AUTO 33012G22KT 290V360 9999NDV FEW021 BKN037 17/12 Q1011=
Kuressaare lennuväli
EEPU Pärnu lennuväli
METAR EEPU 300950Z 31012KT 270V340 8000 -RA BKN009 15/14 Q1007=
Pärnu lennuväli
EETU Tartu lennuväli
FCEO32 EETN 300600 AAA
TAF EETU 301000Z 3007/3013 CNL=

METAR EETU 301020Z 24013KT 9999 -SHRA BKN015CB OVC026 16/13 Q1006=
Tartu lennuväli